• Join FlightAware (Why Join?)
  • Login
  • US Flag 
06:39AM EDT


 

Airport Tracker/Info


-or-


 

Live Flight TrackerFlight Track Log ✈ DAL6089 ✈ 02-May-2013 ✈ KSDF - KLGA

Flight Track Log - Related Links

Times and Time Zones

All times are in EDT time to prevent confusion due to time zone crossing. See the DAL6089 flight status page for this flight to view local times or setup timezone preferences in your user account.

Time Position Orientation Groundspeed Altitude Reporting Facility
EDT Latitude Longitude Course Direction KTS MPH feet Rate Location/Type
06:06AM 38.1667 -85.7167 165° South 154 177 1,600  Level Louisville TRACON
06:07AM 38.1167 -85.7000 165° South 189 217 4,400 2,400 Climbing Louisville TRACON
06:07AM 38.1072 -85.7025 192° South 164 189 4,800 2,280 Climbing Indianapolis Center
06:08AM 38.0833 -85.6375 115° Southeast 224 258 7,400 2,520 Climbing Indianapolis Center
06:09AM 38.0797 -85.5483 93° East 250 288 10,000 2,520 Climbing Indianapolis Center
06:10AM 38.0756 -85.4497 93° East 277 319 12,500 2,460 Climbing Indianapolis Center
06:11AM 38.0692 -85.3456 94° East 294 338 15,000 2,460 Climbing Indianapolis Center
06:12AM 38.0639 -85.2378 94° East 304 350 17,500 2,100 Climbing Indianapolis Center
06:13AM 38.0583 -85.1236 94° East 309 356 19,300 1,440 Climbing Indianapolis Center
06:14AM 38.0517 -84.9989 94° East 352 405 20,500 1,200 Climbing Indianapolis Center
06:15AM 38.0464 -84.8661 93° East 373 429 21,800 1,200 Climbing Indianapolis Center
06:16AM 38.0358 -84.7278 95° East 391 450 23,000 1,140 Climbing Indianapolis Center
06:17AM 38.0292 -84.5847 93° East 403 464 24,200 1,140 Climbing Indianapolis Center
06:18AM 38.0206 -84.4439 94° East 402 463 25,400 1,260 Climbing Indianapolis Center
06:19AM 38.0097 -84.2789 95° East 402 463 26,800 1,200 Climbing Indianapolis Center
06:20AM 38.0019 -84.1339 94° East 407 468 27,900 1,140 Climbing Indianapolis Center
06:21AM 37.9989 -83.9892 91° East 410 472 29,100 1,140 Climbing Indianapolis Center
06:22AM 37.9972 -83.8436 91° East 412 474 30,300 1,140 Climbing Indianapolis Center
06:23AM 37.9956 -83.6919 91° East 424 488 31,500 1,140 Climbing Indianapolis Center
06:24AM 37.9933 -83.5400 91° East 427 491 32,700 1,140 Climbing Indianapolis Center
06:25AM 37.9906 -83.3867 91° East 434 499 33,900 1,140 Climbing Indianapolis Center
06:26AM 37.9875 -83.2319 91° East 438 504 35,000 540 Climbing Indianapolis Center
06:27AM 37.9839 -83.0775 92° East 438 504 35,000  Level Indianapolis Center
06:28AM 37.9806 -82.9219 92° East 440 506 35,000  Level Indianapolis Center
06:29AM 37.9781 -82.7669 91° East 439 505 35,000  Level Indianapolis Center
06:30AM 37.9733 -82.6083 92° East 447 514 35,000  Level Indianapolis Center
06:31AM 37.9692 -82.4522 92° East 441 507 35,000  Level Indianapolis Center
06:32AM 37.9678 -82.2969 91° East 440 506 35,000  Level Indianapolis Center
06:33AM 37.9731 -82.1606 87° East 435 501 35,000  Level Indianapolis Center
06:34AM 37.9767 -82.0083 88° East 434 499 35,000  Level Indianapolis Center
06:35AM 37.9808 -81.8550 88° East 436 502 35,000  Level Indianapolis Center
06:36AM 37.9844 -81.6694 89° East 440 506 35,000  Level Indianapolis Center
06:37AM 37.9886 -81.5131 88° East 445 512 35,000  Level Indianapolis Center
06:38AM 37.9917 -81.3578 89° East 444 511 35,000  Level Indianapolis Center
06:39AM 37.9939 -81.2000 89° East 448 516 35,000  Level Indianapolis Center
06:40AM 37.9972 -81.0436 88° East 447 514 35,000  Level Indianapolis Center
06:41AM 37.9997 -80.8850 89° East 450 518 35,000  Level Indianapolis Center
06:42AM 38.0006 -80.7781 89° East 444 511 35,000  Level Washington Center
06:43AM 38.0031 -80.6200 89° East 444 511 35,000  Level Washington Center
06:44AM 38.0050 -80.4753 89° East 444 511 35,000  Level Washington Center
06:45AM 38.0092 -80.3200 88° East 444 511 35,000  Level Washington Center
06:46AM 38.0092 -80.1619 90° East 439 505 35,000  Level Washington Center
06:47AM 38.0131 -80.0011 88° East 439 505 35,000  Level Washington Center
06:48AM 38.0153 -79.8247 89° East 444 511 35,000  Level Washington Center
06:49AM 38.0164 -79.6667 89° East 444 511 35,000  Level Washington Center
06:50AM 38.0175 -79.5111 89° East 444 511 35,000  Level Washington Center
06:51AM 38.0183 -79.3558 90° East 439 505 35,000  Level Washington Center
06:52AM 38.0189 -79.2003 90° East 439 505 35,000  Level Washington Center
06:53AM 38.0194 -79.0447 90° East 439 505 35,000  Level Washington Center
06:54AM 38.0211 -78.9050 89° East 439 505 35,000  Level Washington Center
06:55AM 38.0211 -78.7494 90° East 439 505 35,000  Level Washington Center
06:56AM 38.0189 -78.5939 91° East 439 505 35,000  Level Washington Center
06:57AM 38.0147 -78.4250 92° East 439 505 35,000  Level Washington Center
06:58AM 38.0142 -78.2722 90° East 439 505 35,000  Level Washington Center
06:59AM 38.0150 -78.1272 90° East 444 511 35,000  Level Washington Center
07:00AM 38.0225 -77.9667 87° East 433 498 35,000  Level Washington Center
07:01AM 38.0339 -77.8142 85° East 433 498 35,000  Level Washington Center
07:02AM 38.0428 -77.6614 86° East 433 498 35,000  Level Washington Center
07:03AM 38.0494 -77.5114 87° East 433 498 35,000  Level Washington Center
07:04AM 38.0600 -77.3614 85° East 428 493 35,000  Level Washington Center
07:05AM 38.1097 -77.2411 62° Northeast 422 486 35,000  Level Washington Center
07:06AM 38.1803 -77.1186 54° Northeast 416 479 35,000  Level Washington Center
07:07AM 38.2506 -76.9983 53° Northeast 416 479 35,000  Level Washington Center
07:08AM 38.3206 -76.8778 53° Northeast 422 486 35,000  Level Washington Center
07:09AM 38.3928 -76.7547 53° Northeast 427 491 35,000  Level Washington Center
07:10AM 38.4647 -76.6311 53° Northeast 427 491 35,000 -240 Level Washington Center
07:11AM 38.5325 -76.5072 55° Northeast 427 491 34,600 -1,140 Descending Washington Center
07:12AM 38.6000 -76.3911 53° Northeast 427 491 32,800 -1,800 Descending Washington Center
07:13AM 38.6675 -76.2722 54° Northeast 422 486 31,100 -1,020 Descending Washington Center
07:14AM 38.7389 -76.1586 51° Northeast 412 474 30,900 -840 Descending Washington Center
07:15AM 38.8083 -76.0339 54° Northeast 412 474 29,500 -1,680 Descending Washington Center
07:16AM 38.8733 -75.9142 55° Northeast 412 474 27,500 -1,320 Descending Washington Center
07:17AM 38.9422 -75.7944 53° Northeast 412 474 26,900 -1,200 Descending Washington Center
07:18AM 39.0342 -75.7092 36° Northeast 407 468 25,200 -1,440 Descending Washington Center
07:19AM 39.1217 -75.6236 37° Northeast 398 458 24,000 -660 Descending Washington Center
07:20AM 39.2114 -75.5381 36° Northeast 398 458 24,000 -420 Level Washington Center
07:21AM 39.3072 -75.4522 35° Northeast 403 464 23,200 -900 Descending Washington Center
07:22AM 39.4028 -75.3658 35° Northeast 408 470 22,200 -1,020 Descending Washington Center
07:23AM 39.4944 -75.2850 34° Northeast 408 470 21,200 -1,020 Descending Washington Center
07:24AM 39.5817 -75.2039 36° Northeast 397 457 20,200 -1,380 Descending Washington Center
07:25AM 39.6689 -75.1225 36° Northeast 391 450 18,600 -1,380 Descending Washington Center
07:26AM 39.7644 -75.0381 34° Northeast 385 443 17,500 -1,260 Descending Washington Center
07:27AM 39.8453 -74.9672 34° Northeast 378 435 16,100 -1,800 Descending Washington Center
07:28AM 39.9364 -74.8825 35° Northeast 373 429 13,900 -2,160 Descending Washington Center
07:29AM 40.0167 -74.7667 48° Northeast 355 409 11,400 -1,680 Descending New York TRACON
07:30AM 40.0833 -74.6667 49° Northeast 344 396 10,200 -780 Descending New York TRACON
07:31AM 40.1333 -74.5833 52° Northeast 329 379 10,000 -120 Descending New York TRACON
07:32AM 40.2000 -74.5000 44° Northeast 333 383 10,000 -300 Level New York TRACON
07:33AM 40.2667 -74.4333 37° Northeast 263 303 9,400 -1,200 Descending New York TRACON
07:34AM 40.3167 -74.3667 45° Northeast 250 288 7,700 -1,320 Descending New York TRACON
07:35AM 40.3500 -74.3167 49° Northeast 256 295 7,100 -420 Descending New York TRACON
07:36AM 40.4000 -74.2500 45° Northeast 248 285 7,000 -60 Descending New York TRACON
07:37AM 40.4500 -74.1833 45° Northeast 255 293 7,000 -780 Level New York TRACON
07:38AM 40.5000 -74.1333 37° Northeast 245 282 5,500 -1,500 Descending New York TRACON
07:39AM 40.5667 -74.0833 30° Northeast 233 268 4,000 -840 Descending New York TRACON
07:40AM 40.6167 -74.0667 14° North 252 290 4,000  Level New York TRACON
07:41AM 40.6833 -74.0333 21° North 243 280 4,000  Level New York TRACON
07:42AM 40.7500 -74.0167 11° North 254 292 4,000  Level New York TRACON
07:43AM 40.7833 -73.9667 49° Northeast 242 278 4,000 -180 Level New York TRACON
07:44AM 40.8333 -73.9000 45° Northeast 245 282 3,700 -420 Descending New York TRACON
07:45AM 40.8833 -73.8333 45° Northeast 246 283 3,200 -540 Descending New York TRACON